Time;durP1;ratioP1;P1;durP2;ratioP2;P2;SDS_P1;SDS_P2;PMS_P1;PMS_P2;Temp;Humidity;BMP_temperature;BMP_pressure;BME280_temperature;BME280_humidity;BME280_pressure;Samples;Min_cycle;Max_cycle;Signal;HPM_P1;HPM_P2
2022/05/11 00:06:59;;;;;;;1.65;1.02;;;;;;;;;;20941662;28;20223;-68
2022/05/11 00:17:01;;;;;;;1.55;1.05;;;;;;;;;;20946915;28;20223;-68
2022/05/11 00:27:03;;;;;;;1.50;1.15;;;21.80;99.90;;;;;;20961220;28;20764;-68
2022/05/11 00:37:05;;;;;;;2.20;1.17;;;;;;;;;;20960895;28;20263;-68
2022/05/11 00:47:13;;;;;;;1.73;1.20;;;21.20;99.90;;;;;;20959988;28;20260;-68
2022/05/11 00:57:18;;;;;;;1.27;0.95;;;;;;;;;;20922684;22;20229;-69
2022/05/11 01:07:19;;;;;;;1.77;1.07;;;;;;;;;;20860298;28;20688;-69
2022/05/11 01:17:24;;;;;;;1.30;1.00;;;;;;;;;;20859246;28;20222;-69
2022/05/11 01:27:27;;;;;;;1.67;1.30;;;;;;;;;;20858760;28;20585;-69
2022/05/11 01:37:29;;;;;;;1.80;1.20;;;;;;;;;;20857248;28;20224;-69
2022/05/11 01:47:31;;;;;;;2.00;1.10;;;;;;;;;;20873684;28;20213;-69
2022/05/11 01:57:32;;;;;;;3.03;1.40;;;;;;;;;;20856888;28;20220;-69
2022/05/11 02:07:49;;;;;;;2.73;1.20;;;;;;;;;;20856110;28;20212;-69
2022/05/11 02:17:51;;;;;;;2.33;1.30;;;;;;;;;;20852131;28;20275;-69
2022/05/11 02:27:52;;;;;;;1.60;1.10;;;19.80;99.90;;;;;;20877256;28;20289;-69
2022/05/11 02:37:56;;;;;;;2.00;1.40;;;;;;;;;;20854286;28;20228;-68
2022/05/11 02:48:00;;;;;;;1.73;1.10;;;;;;;;;;20854248;28;20205;-68
2022/05/11 02:58:03;;;;;;;2.13;1.20;;;;;;;;;;20866741;28;20264;-68
2022/05/11 03:08:05;;;;;;;1.50;1.20;;;;;;;;;;20869645;28;20200;-68
2022/05/11 03:18:07;;;;;;;1.60;1.20;;;;;;;;;;20869127;28;20200;-68
2022/05/11 03:28:08;;;;;;;1.90;1.37;;;;;;;;;;20867394;28;20213;-68
2022/05/11 03:38:10;;;;;;;1.93;1.30;;;19.30;99.90;;;;;;20870177;28;20217;-69
2022/05/11 03:48:12;;;;;;;1.53;1.10;;;;;;;;;;20850817;28;20205;-69
2022/05/11 03:58:14;;;;;;;2.07;1.40;;;;;;;;;;20866282;28;20223;-69
2022/05/11 04:08:16;;;;;;;1.73;1.27;;;;;;;;;;20881510;28;20207;-69
2022/05/11 04:18:18;;;;;;;7.47;1.50;;;;;;;;;;20864625;28;20204;-70
2022/05/11 04:28:20;;;;;;;1.93;1.40;;;;;;;;;;20864079;28;20200;-69
2022/05/11 04:38:22;;;;;;;2.77;1.50;;;;;;;;;;20863401;28;20204;-68
2022/05/11 04:48:24;;;;;;;2.13;1.47;;;;;;;;;;20862631;28;20662;-69
2022/05/11 04:58:27;;;;;;;1.83;1.20;;;;;;;;;;20887071;28;20230;-69
2022/05/11 05:08:29;;;;;;;2.10;1.20;;;;;;;;;;20876451;28;20216;-69
2022/05/11 05:18:32;;;;;;;1.20;1.10;;;;;;;;;;20859370;28;20678;-68
2022/05/11 05:38:54;;;;;;;2.10;1.37;;;;;;;;;;20930184;28;20214;-69
2022/05/11 05:48:56;;;;;;;4.50;1.00;;;;;;;;;;20970586;28;20261;-69
2022/05/11 05:59:03;;;;;;;1.50;0.90;;;19.60;99.90;;;;;;20907796;28;20238;-69
2022/05/11 06:09:05;;;;;;;1.70;1.20;;;;;;;;;;20797863;28;20680;-69
2022/05/11 06:19:07;;;;;;;1.97;1.37;;;;;;;;;;20772155;28;20213;-69
2022/05/11 06:29:09;;;;;;;1.50;1.10;;;;;;;;;;20787155;28;20762;-69
2022/05/11 06:39:10;;;;;;;1.70;1.07;;;;;;;;;;20771206;28;20213;-70
2022/05/11 06:49:12;;;;;;;2.97;1.00;;;;;;;;;;20770940;28;20221;-69
2022/05/11 06:59:21;;;;;;;1.80;1.20;;;;;;;;;;20858393;23;20240;-67
2022/05/11 07:09:24;;;;;;;1.50;0.97;;;;;;;;;;20932270;28;20224;-67
2022/05/11 07:19:26;;;;;;;1.87;1.30;;;;;;;;;;20931566;28;20634;-67
2022/05/11 07:29:28;;;;;;;1.07;0.87;;;;;;;;;;20947333;28;20236;-67
2022/05/11 07:39:30;;;;;;;1.97;1.40;;;;;;;;;;20904245;28;20241;-67
2022/05/11 07:49:32;;;;;;;1.53;0.90;;;;;;;;;;20879333;28;20345;-67
2022/05/11 08:09:57;;;;;;;2.00;1.20;;;;;;;;;;20914764;28;20207;-68
2022/05/11 08:20:00;;;;;;;1.42;0.95;;;;;;;;;;20896107;28;20272;-68
2022/05/11 08:40:37;;;;;;;1.50;0.88;;;;;;;;;;20881390;28;20211;-68
2022/05/11 08:50:43;;;;;;;2.03;1.08;;;24.10;99.90;;;;;;20877185;28;20212;-67
2022/05/11 09:00:45;;;;;;;1.55;0.95;;;24.50;99.90;;;;;;20895187;28;20220;-68
2022/05/11 09:10:47;;;;;;;1.05;0.90;;;;;;;;;;20878099;28;20223;-68
2022/05/11 09:20:52;;;;;;;1.38;1.02;;;;;;;;;;20892630;28;20291;-68
2022/05/11 09:31:16;;;;;;;1.42;1.05;;;;;;;;;;20874906;28;20229;-67
2022/05/11 09:41:18;;;;;;;2.42;0.93;;;;;;;;;;20967802;28;20228;-68
2022/05/11 09:51:21;;;;;;;3.25;1.00;;;;;;;;;;20953484;28;20705;-68
2022/05/11 10:01:27;;;;;;;2.30;1.20;;;26.20;99.90;;;;;;20938798;28;20271;-68
2022/05/11 10:11:47;;;;;;;1.80;1.02;;;26.40;99.90;;;;;;20905563;28;20269;-68
2022/05/11 10:21:56;;;;;;;1.20;0.90;;;;;;;;;;20937981;28;20752;-68
2022/05/11 10:32:12;;;;;;;1.52;1.10;;;26.80;93.80;;;;;;20953001;28;20636;-68
2022/05/11 10:42:30;;;;;;;2.33;0.70;;;;;;;;;;20934053;28;20698;-68
2022/05/11 10:52:40;;;;;;;3.08;1.15;;;;;;;;;;20953743;28;20229;-69
2022/05/11 11:03:24;;;;;;;2.42;0.70;;;27.40;91.20;;;;;;20953184;28;20216;-68
2022/05/11 11:13:25;;;;;;;1.27;0.93;;;;;;;;;;20944818;28;20227;-69
2022/05/11 11:24:11;;;;;;;1.65;0.98;;;28.00;99.90;;;;;;20979538;28;20221;-68
2022/05/11 11:34:18;;;;;;;1.10;0.80;;;27.70;99.90;;;;;;20931436;28;20276;-68
2022/05/11 11:44:26;;;;;;;7.25;1.83;;;;;;;;;;20946217;28;20276;-68
2022/05/11 11:54:28;;;;;;;1.70;0.60;;;;;;;;;;20976711;28;20223;-68
2022/05/11 12:04:33;;;;;;;2.20;0.80;;;;;;;;;;20943151;28;20208;-68
2022/05/11 12:25:09;;;;;;;6.32;0.85;;;;;;;;;;20957951;28;20270;-68
2022/05/11 12:35:18;;;;;;;2.30;0.75;;;28.90;72.70;;;;;;20958895;28;20276;-68
2022/05/11 12:45:33;;;;;;;2.58;0.60;;;29.00;66.90;;;;;;20941073;28;20208;-69
2022/05/11 12:55:36;;;;;;;7.50;0.77;;;29.20;79.70;;;;;;20973380;28;20235;-69
2022/05/11 13:05:39;;;;;;;1.10;0.70;;;;;;;;;;20955103;28;20201;-69
2022/05/11 13:15:42;;;;;;;1.35;0.60;;;;;;;;;;20937132;28;20209;-68
2022/05/11 13:25:54;;;;;;;3.90;1.73;;;29.90;75.60;;;;;;20969349;28;20249;-69
2022/05/11 13:36:05;;;;;;;0.95;0.45;;;;;;;;;;20938827;28;20232;-68
2022/05/11 13:46:28;;;;;;;0.70;0.47;;;29.70;69.10;;;;;;20956086;28;20281;-68
2022/05/11 13:56:30;;;;;;;0.98;0.63;;;;;;;;;;20955265;28;20242;-69
2022/05/11 14:06:33;;;;;;;1.08;0.70;;;;;;;;;;20954660;28;20211;-69
2022/05/11 14:16:35;;;;;;;0.63;0.52;;;;;;;;;;20954524;28;20597;-68
2022/05/11 14:26:38;;;;;;;2.95;0.75;;;;;;;;;;20937597;28;20216;-69
2022/05/11 14:36:40;;;;;;;0.70;0.60;;;;;;;;;;20935058;28;20591;-68
2022/05/11 14:46:43;;;;;;;0.70;0.50;;;30.50;75.20;;;;;;20954339;28;20229;-69
2022/05/11 15:01:55;;;;;;;1.63;0.70;;;;;;;;;;20954090;28;20216;-68
2022/05/11 15:07:11;;;;;;;0.70;0.50;;;;;;;;;;20969590;28;20216;-69
2022/05/11 15:17:23;;;;;;;0.50;0.45;;;;;;;;;;20968922;28;20238;-68
2022/05/11 15:27:25;;;;;;;1.90;0.70;;;;;;;;;;20951905;28;20582;-69
2022/05/11 15:37:27;;;;;;;0.98;0.50;;;;;;;;;;20963407;28;20255;-69
2022/05/11 15:47:29;;;;;;;0.47;0.45;;;;;;;;;;20929283;28;20274;-68
2022/05/11 15:57:31;;;;;;;1.67;0.70;;;;;;;;;;20918748;28;20235;-68
2022/05/11 16:07:33;;;;;;;2.97;0.60;;;;;;;;;;20937490;28;20216;-69
2022/05/11 16:27:55;;;;;;;1.40;0.70;;;;;;;;;;20957563;28;20225;-68
2022/05/11 16:37:58;;;;;;;1.85;0.50;;;;;;;;;;20932275;28;20228;-68
2022/05/11 16:48:00;;;;;;;0.80;0.65;;;;;;;;;;20937371;28;20274;-69
2022/05/11 16:58:02;;;;;;;2.40;0.73;;;;;;;;;;20939855;28;20660;-68
2022/05/11 17:08:04;;;;;;;1.85;0.60;;;;;;;;;;20955692;28;20468;-69
2022/05/11 17:18:06;;;;;;;1.35;0.60;;;;;;;;;;20936885;28;20220;-68
2022/05/11 17:28:08;;;;;;;2.53;0.70;;;;;;;;;;20937450;28;20589;-69
2022/05/11 17:38:13;;;;;;;1.05;0.60;;;;;;;;;;20932920;28;20290;-69
2022/05/11 17:48:15;;;;;;;1.92;0.60;;;;;;;;;;20933896;28;20215;-69
2022/05/11 17:58:20;;;;;;;0.98;0.60;;;28.30;83.00;;;;;;20968416;28;20259;-68
2022/05/11 18:08:22;;;;;;;1.92;0.90;;;;;;;;;;20938319;28;20265;-68
2022/05/11 18:18:25;;;;;;;1.02;0.73;;;;;;;;;;20937463;28;20385;-68
2022/05/11 18:28:27;;;;;;;1.52;0.80;;;27.90;86.00;;;;;;20935995;28;20216;-68
2022/05/11 18:38:30;;;;;;;1.63;0.80;;;;;;;;;;20919403;28;20706;-68
2022/05/11 18:48:33;;;;;;;2.28;0.60;;;;;;;;;;20950982;28;20220;-68
2022/05/11 18:58:35;;;;;;;1.58;0.70;;;;;;;;;;20935531;28;20273;-68
2022/05/11 19:08:37;;;;;;;1.02;0.68;;;;;;;;;;20909186;28;20281;-68
2022/05/11 19:18:40;;;;;;;2.10;0.60;;;;;;;;;;20867794;28;20236;-68
2022/05/11 19:28:42;;;;;;;2.05;0.70;;;;;;;;;;20835540;28;20224;-69
2022/05/11 19:38:45;;;;;;;1.88;0.80;;;;;;;;;;20887557;28;20228;-68
2022/05/11 19:48:47;;;;;;;1.80;0.93;;;;;;;;;;20936219;28;20261;-68
2022/05/11 19:58:49;;;;;;;1.60;0.60;;;;;;;;;;20937960;28;20628;-68
2022/05/11 20:08:51;;;;;;;2.45;0.80;;;;;;;;;;20939574;28;20270;-68
2022/05/11 20:18:53;;;;;;;0.90;0.63;;;;;;;;;;20940868;28;20247;-68
2022/05/11 20:28:56;;;;;;;4.10;0.82;;;26.50;89.40;;;;;;20942359;28;20549;-68
2022/05/11 20:38:58;;;;;;;2.17;0.80;;;26.40;89.40;;;;;;20944577;28;20277;-68
2022/05/11 20:49:01;;;;;;;1.10;0.77;;;26.40;90.70;;;;;;20942544;28;20222;-68
2022/05/11 20:59:04;;;;;;;1.50;0.90;;;26.30;91.00;;;;;;20944217;28;20278;-68
2022/05/11 21:09:06;;;;;;;1.35;0.90;;;;;;;;;;20943121;28;20201;-68
2022/05/11 21:19:08;;;;;;;1.80;0.77;;;;;;;;;;20958740;28;20220;-68
2022/05/11 21:29:10;;;;;;;2.13;0.80;;;;;;;;;;20957935;28;20216;-68
2022/05/11 21:39:12;;;;;;;1.38;0.80;;;;;;;;;;20926695;28;20223;-68
2022/05/11 21:49:14;;;;;;;1.85;0.98;;;;;;;;;;20940686;28;20254;-68
2022/05/11 21:59:16;;;;;;;1.95;1.10;;;;;;;;;;20938978;28;20224;-68
2022/05/11 22:09:18;;;;;;;1.50;0.80;;;25.40;89.70;;;;;;20938884;28;20242;-68
2022/05/11 22:19:20;;;;;;;1.75;0.90;;;;;;;;;;20938355;28;20276;-68
2022/05/11 22:29:21;;;;;;;1.50;0.88;;;;;;;;;;20934826;28;20764;-68
2022/05/11 22:39:23;;;;;;;1.52;0.80;;;;;;;;;;20937658;28;20218;-68
2022/05/11 22:49:26;;;;;;;2.13;0.88;;;;;;;;;;20937138;28;20219;-67
2022/05/11 22:59:29;;;;;;;1.50;0.80;;;;;;;;;;20952089;28;20273;-68
2022/05/11 23:09:31;;;;;;;1.83;0.70;;;;;;;;;;20940022;28;20208;-67
2022/05/11 23:19:33;;;;;;;4.55;1.20;;;;;;;;;;20967802;28;20724;-68
2022/05/11 23:29:35;;;;;;;1.08;0.70;;;;;;;;;;20951117;28;20201;-67
2022/05/11 23:39:37;;;;;;;1.30;0.80;;;;;;;;;;20966651;28;20277;-67
2022/05/11 23:49:39;;;;;;;1.35;0.82;;;;;;;;;;20949381;28;20257;-69
2022/05/11 23:59:41;;;;;;;1.08;0.77;;;;;;;;;;20948967;28;20222;-67
